Time;durP1;ratioP1;P1;durP2;ratioP2;P2;SDS_P1;SDS_P2;PMS_P1;PMS_P2;Temp;Humidity;BMP_temperature;BMP_pressure;BME280_temperature;BME280_humidity;BME280_pressure;Samples;Min_cycle;Max_cycle;Signal;HPM_P1;HPM_P2
2022/03/26 00:01:37;;;;;;;39.20;21.63;;;9.40;99.90;;;;;;5031863;28;20171;-46
2022/03/26 00:04:03;;;;;;;42.40;24.17;;;9.30;99.90;;;;;;5032178;28;20167;-46
2022/03/26 00:06:29;;;;;;;40.50;22.27;;;9.30;99.90;;;;;;5031949;28;20566;-45
2022/03/26 00:08:54;;;;;;;39.00;19.92;;;9.40;99.90;;;;;;5032019;28;20199;-45
2022/03/26 00:11:20;;;;;;;36.42;22.27;;;9.30;99.90;;;;;;5032373;28;20225;-45
2022/03/26 00:13:46;;;;;;;37.53;19.88;;;9.30;99.90;;;;;;5031689;28;20264;-45
2022/03/26 00:16:11;;;;;;;39.63;21.15;;;9.30;99.90;;;;;;5031941;28;20642;-45
2022/03/26 00:18:38;;;;;;;38.33;21.27;;;9.20;99.90;;;;;;5031690;28;20254;-45
2022/03/26 00:21:04;;;;;;;37.45;20.73;;;9.20;99.90;;;;;;5031969;28;20171;-45
2022/03/26 00:23:29;;;;;;;30.85;18.58;;;9.20;99.90;;;;;;5031666;28;20170;-45
2022/03/26 00:25:58;;;;;;;30.42;18.88;;;9.10;99.90;;;;;;5031661;28;20242;-45
2022/03/26 00:28:24;;;;;;;31.05;19.52;;;9.10;99.90;;;;;;5032018;28;20164;-45
2022/03/26 00:30:49;;;;;;;38.20;20.00;;;9.10;99.90;;;;;;5031897;28;20694;-45
2022/03/26 00:33:15;;;;;;;37.38;20.33;;;9.00;99.90;;;;;;5031641;28;20207;-45
2022/03/26 00:35:40;;;;;;;32.85;19.60;;;9.10;99.90;;;;;;5031611;28;20267;-45
2022/03/26 00:38:06;;;;;;;33.13;20.17;;;9.00;99.90;;;;;;5031572;28;20191;-45
2022/03/26 00:40:31;;;;;;;34.05;19.55;;;9.00;99.90;;;;;;5031648;28;20213;-45
2022/03/26 00:42:58;;;;;;;35.38;20.10;;;9.00;99.90;;;;;;5031586;28;20171;-45
2022/03/26 00:45:24;;;;;;;39.67;23.02;;;8.90;99.90;;;;;;5031773;28;20705;-45
2022/03/26 00:47:49;;;;;;;47.30;21.67;;;8.80;99.90;;;;;;5031792;28;20223;-45
2022/03/26 00:50:15;;;;;;;37.42;21.85;;;8.80;99.90;;;;;;5031399;28;20209;-45
2022/03/26 00:52:41;;;;;;;39.03;22.75;;;8.80;99.90;;;;;;5031428;28;20256;-45
2022/03/26 00:55:07;;;;;;;36.25;21.08;;;8.90;99.90;;;;;;5031422;28;20171;-45
2022/03/26 00:57:33;;;;;;;34.83;21.00;;;8.90;99.90;;;;;;5033060;28;20322;-45
2022/03/26 00:59:58;;;;;;;35.72;21.80;;;8.80;99.90;;;;;;5035219;28;20670;-45
2022/03/26 01:02:24;;;;;;;34.20;21.10;;;8.80;99.90;;;;;;5035559;28;20173;-45
2022/03/26 01:04:50;;;;;;;35.88;20.23;;;8.70;99.90;;;;;;5035541;28;20182;-45
2022/03/26 01:07:16;;;;;;;32.70;18.88;;;8.70;99.90;;;;;;5035341;28;20250;-45
2022/03/26 01:09:41;;;;;;;33.60;19.25;;;8.70;99.90;;;;;;5034763;28;20251;-45
2022/03/26 01:12:08;;;;;;;34.13;20.50;;;8.60;99.90;;;;;;5034847;28;20733;-45
2022/03/26 01:14:33;;;;;;;32.90;18.23;;;8.60;99.90;;;;;;5035042;28;20168;-45
2022/03/26 01:17:00;;;;;;;41.53;19.48;;;8.60;99.90;;;;;;5034835;28;20172;-45
2022/03/26 01:19:25;;;;;;;39.55;18.90;;;8.60;99.90;;;;;;5034734;28;20619;-45
2022/03/26 01:21:51;;;;;;;39.58;19.48;;;8.60;99.90;;;;;;5035121;28;20175;-45
2022/03/26 01:24:17;;;;;;;28.13;19.38;;;8.50;99.90;;;;;;5034719;28;20167;-45
2022/03/26 01:26:43;;;;;;;37.63;19.02;;;8.50;99.90;;;;;;5034599;28;20697;-46
2022/03/26 01:29:09;;;;;;;30.30;17.83;;;8.50;99.90;;;;;;5034657;28;20167;-45
2022/03/26 01:31:34;;;;;;;30.10;18.80;;;8.50;99.90;;;;;;5034580;28;20176;-45
2022/03/26 01:34:00;;;;;;;31.05;18.83;;;8.40;99.90;;;;;;5034570;28;20258;-45
2022/03/26 01:36:28;;;;;;;32.28;18.55;;;8.30;99.90;;;;;;5034676;28;20163;-45
2022/03/26 01:38:53;;;;;;;38.38;19.17;;;8.40;99.90;;;;;;5034647;28;20544;-45
2022/03/26 01:41:20;;;;;;;31.95;18.88;;;8.40;99.90;;;;;;5034364;28;20175;-45
2022/03/26 01:43:46;;;;;;;38.70;19.77;;;8.30;99.90;;;;;;5034586;28;20225;-45
2022/03/26 01:46:12;;;;;;;35.53;21.10;;;8.20;99.90;;;;;;5034150;28;20262;-45
2022/03/26 01:48:39;;;;;;;38.20;19.90;;;8.30;99.90;;;;;;5034298;28;20167;-45
2022/03/26 01:51:14;;;;;;;37.55;20.98;;;8.30;99.90;;;;;;5034449;28;20541;-45
2022/03/26 01:53:44;;;;;;;36.92;20.20;;;8.20;99.90;;;;;;5034074;28;20209;-45
2022/03/26 01:56:11;;;;;;;39.67;19.60;;;8.10;99.90;;;;;;5034187;28;20171;-45
2022/03/26 01:58:36;;;;;;;34.47;20.13;;;8.10;99.90;;;;;;5034361;28;20527;-45
2022/03/26 02:01:02;;;;;;;34.75;19.42;;;8.10;99.90;;;;;;5034070;28;20163;-45
2022/03/26 02:03:28;;;;;;;46.20;20.95;;;8.10;99.90;;;;;;5033976;28;20190;-45
2022/03/26 02:05:55;;;;;;;33.85;18.90;;;8.10;99.90;;;;;;5034467;28;20642;-45
2022/03/26 02:08:20;;;;;;;30.92;18.52;;;8.10;99.90;;;;;;5033702;28;20630;-45
2022/03/26 02:10:46;;;;;;;33.72;18.65;;;8.10;99.90;;;;;;5033870;28;20178;-45
2022/03/26 02:13:11;;;;;;;36.88;19.48;;;8.10;99.90;;;;;;5033703;28;20261;-45
2022/03/26 02:15:37;;;;;;;33.75;18.80;;;8.10;99.90;;;;;;5033741;28;20628;-45
2022/03/26 02:18:03;;;;;;;35.88;20.10;;;8.00;99.90;;;;;;5033719;28;20172;-45
2022/03/26 02:20:30;;;;;;;38.22;20.17;;;7.90;99.90;;;;;;5033865;28;20697;-45
2022/03/26 02:22:56;;;;;;;39.22;20.23;;;7.90;99.90;;;;;;5033599;28;20167;-45
2022/03/26 02:25:22;;;;;;;33.70;19.40;;;7.90;99.90;;;;;;5033753;28;20242;-45
2022/03/26 02:27:47;;;;;;;36.65;20.05;;;7.90;99.90;;;;;;5033756;28;20248;-45
2022/03/26 02:30:13;;;;;;;35.10;20.58;;;7.90;99.90;;;;;;5033393;28;20164;-45
2022/03/26 02:32:39;;;;;;;39.35;20.75;;;8.00;99.90;;;;;;5033290;28;20313;-45
2022/03/26 02:35:05;;;;;;;35.17;20.50;;;8.00;99.90;;;;;;5033299;28;20171;-45
2022/03/26 02:37:32;;;;;;;37.60;22.40;;;8.00;99.90;;;;;;5033209;28;20179;-45
2022/03/26 02:39:58;;;;;;;37.08;21.52;;;8.00;99.90;;;;;;5033217;28;20705;-45
2022/03/26 02:42:24;;;;;;;46.10;23.23;;;8.00;99.90;;;;;;5033513;28;20171;-45
2022/03/26 02:44:50;;;;;;;38.78;22.15;;;8.00;99.90;;;;;;5033534;28;20538;-45
2022/03/26 02:47:16;;;;;;;37.15;20.52;;;7.90;99.90;;;;;;5033061;28;20238;-45
2022/03/26 02:49:41;;;;;;;36.13;21.02;;;7.90;99.90;;;;;;5033121;28;20646;-45
2022/03/26 02:52:07;;;;;;;35.70;19.83;;;7.80;99.90;;;;;;5033074;28;20194;-45
2022/03/26 02:54:33;;;;;;;35.30;19.45;;;7.70;99.90;;;;;;5033010;28;20595;-45
2022/03/26 02:56:59;;;;;;;36.38;19.88;;;7.70;99.90;;;;;;5033281;28;20175;-45
2022/03/26 02:59:24;;;;;;;39.00;20.50;;;7.70;99.90;;;;;;5032895;28;20191;-45
2022/03/26 03:01:53;;;;;;;44.30;21.95;;;7.70;99.90;;;;;;5033214;28;20167;-45
2022/03/26 03:04:20;;;;;;;35.20;20.42;;;7.70;99.90;;;;;;5032857;28;20173;-45
2022/03/26 03:06:46;;;;;;;35.08;21.20;;;7.60;99.90;;;;;;5033030;28;20182;-45
2022/03/26 03:09:12;;;;;;;36.15;19.65;;;7.60;99.90;;;;;;5032661;28;20655;-45
2022/03/26 03:11:37;;;;;;;36.15;19.17;;;7.50;99.90;;;;;;5032778;28;20164;-45
2022/03/26 03:14:04;;;;;;;33.78;18.75;;;7.50;99.90;;;;;;5032542;28;20206;-45
2022/03/26 03:16:31;;;;;;;31.33;18.00;;;7.50;99.90;;;;;;5032546;28;20171;-45
2022/03/26 03:18:56;;;;;;;37.65;20.42;;;7.50;99.90;;;;;;5032614;28;20648;-45
2022/03/26 03:21:22;;;;;;;33.25;20.05;;;7.50;99.90;;;;;;5032175;28;20286;-45
2022/03/26 03:23:47;;;;;;;39.72;19.77;;;7.50;99.90;;;;;;5032530;28;20194;-45
2022/03/26 03:26:13;;;;;;;35.22;21.25;;;7.50;99.90;;;;;;5032506;28;20246;-45
2022/03/26 03:28:39;;;;;;;42.25;23.13;;;7.40;99.90;;;;;;5032427;28;20254;-45
2022/03/26 03:31:04;;;;;;;43.88;23.38;;;7.40;99.90;;;;;;5032439;28;20257;-45
2022/03/26 03:33:30;;;;;;;42.75;23.70;;;7.40;99.90;;;;;;5032242;28;20636;-45
2022/03/26 03:35:56;;;;;;;44.38;25.30;;;7.40;99.90;;;;;;5032307;28;20178;-45
2022/03/26 03:38:22;;;;;;;43.63;24.88;;;7.40;99.90;;;;;;5032681;28;20198;-45
2022/03/26 03:40:47;;;;;;;41.20;25.33;;;7.30;99.90;;;;;;5047500;28;20167;-45
2022/03/26 03:43:13;;;;;;;44.67;25.00;;;7.30;99.90;;;;;;5032426;28;20218;-45
2022/03/26 03:45:39;;;;;;;48.83;24.85;;;7.30;99.90;;;;;;5032384;28;20695;-45
2022/03/26 03:48:04;;;;;;;42.30;23.38;;;7.30;99.90;;;;;;5031957;28;20599;-45
2022/03/26 03:50:30;;;;;;;40.95;23.38;;;7.30;99.90;;;;;;5032155;28;20167;-45
2022/03/26 03:52:55;;;;;;;41.83;23.95;;;7.30;99.90;;;;;;5031962;28;20535;-45
2022/03/26 03:55:21;;;;;;;44.08;24.23;;;7.20;99.90;;;;;;5032343;28;20167;-45
2022/03/26 03:57:46;;;;;;;45.97;23.98;;;7.20;99.90;;;;;;5032048;28;20175;-45
2022/03/26 04:00:14;;;;;;;43.83;23.58;;;7.30;99.90;;;;;;5031991;28;20691;-45
2022/03/26 04:02:40;;;;;;;43.08;24.02;;;7.20;99.90;;;;;;5032220;28;20170;-45
2022/03/26 04:05:09;;;;;;;43.17;25.42;;;7.20;99.90;;;;;;5031952;28;20159;-45
2022/03/26 04:07:38;;;;;;;41.53;23.73;;;7.20;99.90;;;;;;5032169;28;20183;-45
2022/03/26 04:10:07;;;;;;;45.45;26.58;;;7.20;99.90;;;;;;5031900;28;20655;-45
2022/03/26 04:12:33;;;;;;;37.80;21.05;;;7.10;99.90;;;;;;5031768;28;20693;-45
2022/03/26 04:14:59;;;;;;;39.30;21.58;;;7.20;99.90;;;;;;5031889;28;20180;-45
2022/03/26 04:17:24;;;;;;;33.40;18.85;;;7.20;99.90;;;;;;5031776;28;20167;-45
2022/03/26 04:19:50;;;;;;;32.70;17.20;;;7.10;99.90;;;;;;5032106;28;20229;-45
2022/03/26 04:22:15;;;;;;;30.58;18.48;;;7.00;99.90;;;;;;5031813;28;20171;-44
2022/03/26 04:24:41;;;;;;;34.13;19.15;;;7.00;99.90;;;;;;5031745;28;20175;-44
2022/03/26 04:27:06;;;;;;;33.25;17.52;;;6.90;99.90;;;;;;5031838;28;20167;-45
2022/03/26 04:29:32;;;;;;;37.97;19.67;;;6.70;99.90;;;;;;5031831;28;20171;-45
2022/03/26 04:31:58;;;;;;;40.63;21.15;;;6.70;99.90;;;;;;5033680;28;20534;-45
2022/03/26 04:34:24;;;;;;;40.40;22.17;;;6.70;99.90;;;;;;5036154;28;20267;-45
2022/03/26 04:36:50;;;;;;;42.58;21.42;;;6.70;99.90;;;;;;5035875;28;20190;-45
2022/03/26 04:39:16;;;;;;;41.65;22.63;;;6.60;99.90;;;;;;5035565;28;20171;-45
2022/03/26 04:41:41;;;;;;;44.70;24.40;;;6.60;99.90;;;;;;5035509;28;20171;-45
2022/03/26 04:44:07;;;;;;;40.75;22.02;;;6.50;99.90;;;;;;5035481;28;20171;-45
2022/03/26 04:46:34;;;;;;;42.95;22.73;;;6.60;99.90;;;;;;5035287;28;20265;-45
2022/03/26 04:49:00;;;;;;;47.58;23.17;;;6.60;99.90;;;;;;5035399;28;20627;-45
2022/03/26 04:51:25;;;;;;;43.92;23.08;;;6.60;99.90;;;;;;5035357;28;20235;-45
2022/03/26 04:53:51;;;;;;;43.78;23.58;;;6.70;99.90;;;;;;5035555;28;20203;-45
2022/03/26 04:56:16;;;;;;;46.33;24.63;;;6.70;99.90;;;;;;5035262;28;20195;-45
2022/03/26 04:58:42;;;;;;;50.13;24.42;;;6.70;99.90;;;;;;5035235;28;20667;-45
2022/03/26 05:01:08;;;;;;;50.83;25.25;;;6.70;99.90;;;;;;5035160;28;20176;-45
2022/03/26 05:03:33;;;;;;;45.35;24.63;;;6.70;99.90;;;;;;5035114;28;20173;-45
2022/03/26 05:05:59;;;;;;;51.75;25.42;;;6.70;99.90;;;;;;5035367;28;20167;-45
2022/03/26 05:08:24;;;;;;;48.13;24.55;;;6.70;99.90;;;;;;5050355;28;20167;-45
2022/03/26 05:10:50;;;;;;;55.45;26.52;;;6.70;99.90;;;;;;5035373;28;20175;-45
2022/03/26 05:13:16;;;;;;;43.47;23.90;;;6.70;99.90;;;;;;5034871;28;20257;-45
2022/03/26 05:15:41;;;;;;;52.83;27.50;;;6.60;99.90;;;;;;5034820;28;20624;-45
2022/03/26 05:18:08;;;;;;;48.47;26.15;;;6.60;99.90;;;;;;5034874;28;20179;-45
2022/03/26 05:20:34;;;;;;;48.95;25.73;;;6.60;99.90;;;;;;5034844;28;20170;-45
2022/03/26 05:23:02;;;;;;;46.10;24.95;;;6.60;99.90;;;;;;5034940;28;20176;-44
2022/03/26 05:25:28;;;;;;;43.55;24.55;;;6.70;99.90;;;;;;5034954;28;20510;-45
2022/03/26 05:27:54;;;;;;;47.22;24.45;;;6.70;99.90;;;;;;5034890;28;20226;-45
2022/03/26 05:30:21;;;;;;;46.35;26.23;;;6.60;99.90;;;;;;5034944;28;20163;-44
2022/03/26 05:32:47;;;;;;;50.17;24.67;;;6.60;99.90;;;;;;5034489;28;20290;-44
2022/03/26 05:35:16;;;;;;;46.45;23.88;;;6.60;99.90;;;;;;5034766;28;20171;-45
2022/03/26 05:37:43;;;;;;;46.22;25.02;;;6.60;99.90;;;;;;5034888;28;20175;-44
2022/03/26 05:40:11;;;;;;;45.38;23.85;;;6.60;99.90;;;;;;5034433;28;20160;-44
2022/03/26 05:42:37;;;;;;;43.83;24.20;;;6.60;99.90;;;;;;5033717;28;20171;-44
2022/03/26 05:45:04;;;;;;;45.47;23.70;;;6.60;99.90;;;;;;5034317;28;20278;-44
2022/03/26 05:47:30;;;;;;;48.08;25.08;;;6.60;99.90;;;;;;5034127;28;20222;-45
2022/03/26 05:49:56;;;;;;;45.78;23.65;;;6.60;99.90;;;;;;5034256;28;20163;-45
2022/03/26 05:52:22;;;;;;;43.95;24.90;;;6.60;99.90;;;;;;5034415;28;20202;-44
2022/03/26 05:54:47;;;;;;;53.53;25.33;;;6.60;99.90;;;;;;5034448;28;20172;-44
2022/03/26 05:57:13;;;;;;;49.13;23.90;;;6.60;99.90;;;;;;5049543;28;20695;-45
2022/03/26 05:59:39;;;;;;;54.92;25.55;;;6.60;99.90;;;;;;5034233;28;20179;-45
2022/03/26 06:02:04;;;;;;;49.25;25.92;;;6.70;99.90;;;;;;5033848;28;20168;-45
2022/03/26 06:04:30;;;;;;;49.65;26.25;;;6.70;99.90;;;;;;5033974;28;20318;-45
2022/03/26 06:06:56;;;;;;;46.33;26.02;;;6.80;99.90;;;;;;5033991;28;20171;-45
2022/03/26 06:09:22;;;;;;;49.55;27.20;;;6.80;99.90;;;;;;5034264;28;20179;-45
2022/03/26 06:11:48;;;;;;;48.78;26.02;;;6.90;99.90;;;;;;5033805;28;20250;-45
2022/03/26 06:14:14;;;;;;;45.92;26.13;;;7.00;99.90;;;;;;5033904;28;20262;-45
2022/03/26 06:16:39;;;;;;;38.90;23.08;;;6.90;99.90;;;;;;5033691;28;20168;-45
2022/03/26 06:19:05;;;;;;;41.50;23.00;;;6.90;99.90;;;;;;5033611;28;20250;-45
2022/03/26 06:21:30;;;;;;;44.55;25.55;;;6.90;99.90;;;;;;5033208;28;20159;-45
2022/03/26 06:23:58;;;;;;;44.58;24.08;;;7.00;99.90;;;;;;5033509;28;20167;-45
2022/03/26 06:26:25;;;;;;;43.40;23.73;;;7.10;99.90;;;;;;5034000;28;20186;-45
2022/03/26 06:28:51;;;;;;;43.47;24.92;;;7.10;99.90;;;;;;5033804;28;20176;-45
2022/03/26 06:31:17;;;;;;;46.22;25.98;;;7.20;99.90;;;;;;5033497;28;20194;-45
2022/03/26 06:33:42;;;;;;;45.72;26.05;;;7.30;99.90;;;;;;5033350;28;20210;-45
2022/03/26 06:36:08;;;;;;;51.10;25.92;;;7.30;99.90;;;;;;5033459;28;20175;-45
2022/03/26 06:38:38;;;;;;;40.08;24.27;;;7.40;99.90;;;;;;5033312;28;20171;-46
2022/03/26 06:41:05;;;;;;;48.75;26.35;;;7.60;99.90;;;;;;5033555;28;20163;-45
2022/03/26 06:43:31;;;;;;;42.22;24.77;;;7.60;99.90;;;;;;5033214;28;20175;-45
2022/03/26 06:45:57;;;;;;;42.65;23.05;;;7.70;99.90;;;;;;5033166;28;20178;-45
2022/03/26 06:48:22;;;;;;;40.63;24.80;;;7.80;99.90;;;;;;5033390;28;20254;-45
2022/03/26 06:50:48;;;;;;;46.05;25.20;;;7.80;99.90;;;;;;5033196;28;20541;-45
2022/03/26 06:53:13;;;;;;;45.10;25.50;;;8.00;99.90;;;;;;5032670;28;21317;-45
2022/03/26 06:55:39;;;;;;;43.92;24.75;;;8.00;99.90;;;;;;5033034;28;20175;-45
2022/03/26 06:58:04;;;;;;;39.80;23.60;;;8.20;99.90;;;;;;5032803;28;20221;-45
2022/03/26 07:00:30;;;;;;;43.42;25.50;;;8.40;99.90;;;;;;5032774;28;20159;-45
2022/03/26 07:02:55;;;;;;;46.58;25.45;;;8.40;99.90;;;;;;5032757;28;20171;-45
2022/03/26 07:05:21;;;;;;;43.03;27.13;;;8.40;99.90;;;;;;5033113;28;20213;-45
2022/03/26 07:07:46;;;;;;;49.08;26.70;;;8.60;99.90;;;;;;5033095;28;20170;-45
2022/03/26 07:10:12;;;;;;;40.20;26.20;;;8.60;99.90;;;;;;5032711;28;20183;-45
2022/03/26 07:12:37;;;;;;;49.28;28.58;;;8.80;99.90;;;;;;5031151;28;20215;-45
2022/03/26 07:15:05;;;;;;;47.78;29.40;;;8.90;99.90;;;;;;5032431;28;20253;-45
2022/03/26 07:17:30;;;;;;;52.40;30.67;;;9.10;99.90;;;;;;5032386;28;20753;-45
2022/03/26 07:19:56;;;;;;;52.60;32.58;;;9.10;99.90;;;;;;5032434;28;20167;-46
2022/03/26 07:22:21;;;;;;;54.67;31.40;;;9.30;99.90;;;;;;5032675;28;20164;-45
2022/03/26 07:24:47;;;;;;;56.20;33.17;;;9.30;99.90;;;;;;5032220;28;20171;-45
2022/03/26 07:27:12;;;;;;;51.10;31.63;;;9.40;99.90;;;;;;5032188;28;20177;-45
2022/03/26 07:29:39;;;;;;;55.78;32.83;;;9.50;99.90;;;;;;5032048;28;20638;-45
2022/03/26 07:32:07;;;;;;;66.63;33.03;;;9.60;99.90;;;;;;5032466;28;20168;-45
2022/03/26 07:34:32;;;;;;;54.40;32.35;;;9.60;99.90;;;;;;5032225;28;20249;-45
2022/03/26 07:36:58;;;;;;;51.45;31.83;;;9.70;99.90;;;;;;5032213;28;20635;-45
2022/03/26 07:39:23;;;;;;;55.58;31.73;;;9.80;99.90;;;;;;5032635;28;20578;-45
2022/03/26 07:41:49;;;;;;;53.05;32.15;;;11.10;99.90;;;;;;5032552;28;20228;-45
2022/03/26 07:44:15;;;;;;;58.25;31.65;;;10.00;99.90;;;;;;5031004;28;20171;-45
2022/03/26 07:46:40;;;;;;;54.03;30.98;;;10.10;99.90;;;;;;5032026;28;20264;-45
2022/03/26 07:49:06;;;;;;;53.85;31.73;;;10.20;99.90;;;;;;5032133;28;20171;-45
2022/03/26 07:51:32;;;;;;;58.13;32.88;;;10.20;99.90;;;;;;5032383;28;20202;-45
2022/03/26 07:53:57;;;;;;;60.65;33.25;;;10.40;99.90;;;;;;5031945;28;20352;-45
2022/03/26 07:56:23;;;;;;;53.78;33.90;;;10.50;99.90;;;;;;5032641;28;20175;-45
2022/03/26 07:58:49;;;;;;;56.75;34.38;;;10.50;99.90;;;;;;5032302;28;20258;-45
2022/03/26 08:01:15;;;;;;;66.85;33.33;;;10.70;99.90;;;;;;5031963;28;20174;-45
2022/03/26 08:03:40;;;;;;;56.20;34.78;;;10.70;99.90;;;;;;5032234;28;20229;-45
2022/03/26 08:06:06;;;;;;;62.88;37.47;;;10.90;99.90;;;;;;5031456;28;20211;-45
2022/03/26 08:08:32;;;;;;;65.97;36.45;;;10.90;99.90;;;;;;5031850;28;20178;-45
2022/03/26 08:10:57;;;;;;;61.92;36.13;;;11.20;99.90;;;;;;5032158;28;20175;-45
2022/03/26 08:13:23;;;;;;;53.33;33.92;;;11.30;99.90;;;;;;5032171;28;20215;-45
2022/03/26 08:15:48;;;;;;;52.63;33.35;;;11.30;99.90;;;;;;5031841;28;20182;-45
2022/03/26 08:18:16;;;;;;;55.88;33.85;;;11.50;99.90;;;;;;5031972;28;20206;-45
2022/03/26 08:20:43;;;;;;;57.72;34.42;;;11.60;99.90;;;;;;5031769;28;20209;-45
2022/03/26 08:23:09;;;;;;;59.10;35.28;;;11.70;99.90;;;;;;5031999;28;20171;-45
2022/03/26 08:28:18;;;;;;;55.03;34.85;;;11.80;99.90;;;;;;5031844;28;20169;-45
2022/03/26 08:30:44;;;;;;;51.65;32.65;;;12.10;99.90;;;;;;5031992;28;20163;-45
2022/03/26 08:33:09;;;;;;;54.05;31.10;;;12.20;99.90;;;;;;5031716;28;20210;-45
2022/03/26 08:35:37;;;;;;;49.83;31.92;;;12.30;99.90;;;;;;5031899;28;20167;-45
2022/03/26 08:38:03;;;;;;;52.38;32.35;;;12.30;99.90;;;;;;5031680;28;20203;-45
2022/03/26 08:40:28;;;;;;;55.03;34.13;;;12.50;99.90;;;;;;5031639;28;20175;-45
2022/03/26 08:42:56;;;;;;;58.55;33.97;;;12.60;99.90;;;;;;5031667;28;20168;-46
2022/03/26 08:45:22;;;;;;;54.92;33.47;;;12.70;99.90;;;;;;5047208;28;20179;-45
2022/03/26 08:47:48;;;;;;;52.03;31.67;;;12.60;99.90;;;;;;5031461;28;20721;-45
2022/03/26 08:50:13;;;;;;;55.20;32.22;;;12.60;99.90;;;;;;5031620;28;20172;-45
2022/03/26 08:52:39;;;;;;;46.63;30.75;;;12.60;99.90;;;;;;5031478;28;20191;-45
2022/03/26 08:55:05;;;;;;;49.80;31.65;;;12.80;99.90;;;;;;5031806;28;20179;-45
2022/03/26 08:57:30;;;;;;;50.92;32.63;;;12.90;99.90;;;;;;5031489;28;20199;-45
2022/03/26 08:59:56;;;;;;;56.88;31.98;;;13.10;99.90;;;;;;5031440;28;20179;-45
2022/03/26 09:02:21;;;;;;;51.38;31.38;;;13.10;99.90;;;;;;5031782;28;20171;-45
2022/03/26 09:04:47;;;;;;;53.28;33.05;;;13.20;99.90;;;;;;5031396;28;20541;-45
2022/03/26 09:07:13;;;;;;;50.70;32.03;;;13.20;99.90;;;;;;5031366;28;20169;-45
2022/03/26 09:09:38;;;;;;;45.83;30.60;;;13.30;99.90;;;;;;5031557;28;20619;-45
2022/03/26 09:12:05;;;;;;;54.03;31.50;;;13.50;99.90;;;;;;5031335;28;20176;-45
2022/03/26 09:14:30;;;;;;;48.72;31.48;;;13.60;99.90;;;;;;5031390;28;20172;-45
2022/03/26 09:16:56;;;;;;;55.80;32.17;;;13.80;99.90;;;;;;5031316;28;20522;-45
2022/03/26 09:19:22;;;;;;;52.00;33.08;;;13.90;99.90;;;;;;5034348;28;20290;-45
2022/03/26 09:21:49;;;;;;;46.00;30.77;;;14.00;99.90;;;;;;5034807;28;20254;-45
2022/03/26 09:24:15;;;;;;;50.85;31.60;;;14.10;99.90;;;;;;5034741;28;20209;-45
2022/03/26 09:26:41;;;;;;;49.45;30.73;;;14.10;99.90;;;;;;5034975;28;20182;-45
2022/03/26 09:29:07;;;;;;;50.03;30.23;;;14.30;99.90;;;;;;5033569;28;20159;-45
2022/03/26 09:31:33;;;;;;;51.63;30.60;;;14.40;99.90;;;;;;5034591;28;20167;-45
2022/03/26 09:33:58;;;;;;;46.30;30.13;;;14.50;99.90;;;;;;5034546;28;20206;-45
2022/03/26 09:36:24;;;;;;;51.42;30.55;;;14.40;99.90;;;;;;5034903;28;20171;-45
2022/03/26 09:38:49;;;;;;;49.20;28.92;;;14.60;99.90;;;;;;5034904;28;20658;-45
2022/03/26 09:41:16;;;;;;;45.30;27.63;;;14.70;99.90;;;;;;5034844;28;20180;-45
2022/03/26 09:43:42;;;;;;;41.45;26.17;;;14.70;99.90;;;;;;5034656;28;20183;-45
2022/03/26 09:46:08;;;;;;;49.22;29.95;;;14.90;99.90;;;;;;5034176;28;20625;-45
2022/03/26 09:48:36;;;;;;;51.08;30.17;;;15.10;99.90;;;;;;5034189;28;20533;-45
2022/03/26 09:51:03;;;;;;;48.25;29.20;;;15.00;99.90;;;;;;5034215;28;20171;-45
2022/03/26 09:53:29;;;;;;;49.10;27.70;;;15.00;99.90;;;;;;5034166;28;20207;-45
2022/03/26 09:55:56;;;;;;;48.08;29.65;;;15.00;99.90;;;;;;5034173;28;20213;-45
2022/03/26 09:58:21;;;;;;;45.53;30.00;;;15.20;99.90;;;;;;5049723;28;20186;-45
2022/03/26 10:00:48;;;;;;;46.92;29.40;;;15.30;99.90;;;;;;5034123;28;20172;-45
2022/03/26 10:03:13;;;;;;;41.10;29.40;;;15.50;99.90;;;;;;5034231;28;20172;-45
2022/03/26 10:05:39;;;;;;;48.60;30.90;;;15.70;99.90;;;;;;5033983;28;20170;-45
2022/03/26 10:08:22;;;;;;;52.05;32.78;;;15.80;99.90;;;;;;5049278;28;20178;-45
2022/03/26 10:10:48;;;;;;;47.83;30.73;;;16.00;99.90;;;;;;5033936;28;20171;-45
2022/03/26 10:13:34;;;;;;;45.42;31.42;;;16.00;99.90;;;;;;5049234;28;20203;-45
2022/03/26 10:16:00;;;;;;;44.35;28.75;;;16.20;99.90;;;;;;5034134;28;20171;-45
2022/03/26 10:18:33;;;;;;;40.42;26.70;;;16.20;99.90;;;;;;5033855;28;20653;-46
2022/03/26 10:20:59;;;;;;;44.78;27.80;;;16.10;99.90;;;;;;5033869;28;20182;-45
2022/03/26 10:23:29;;;;;;;45.70;28.70;;;16.30;99.90;;;;;;5033734;28;20163;-45
2022/03/26 10:26:09;;;;;;;48.22;28.75;;;16.40;99.90;;;;;;5033804;28;20222;-45
2022/03/26 10:28:35;;;;;;;45.38;28.38;;;16.50;99.90;;;;;;5033538;28;20251;-45
2022/03/26 10:34:16;;;;;;;40.60;28.92;;;16.50;99.90;;;;;;5033101;28;20253;-45
2022/03/26 10:36:55;;;;;;;49.80;29.33;;;16.50;99.90;;;;;;5048877;28;20619;-45
2022/03/26 10:39:28;;;;;;;37.75;26.10;;;16.70;99.90;;;;;;5033801;28;20171;-45
2022/03/26 10:41:57;;;;;;;44.33;26.77;;;16.80;99.90;;;;;;5033813;28;20700;-45
2022/03/26 10:44:28;;;;;;;41.55;26.35;;;16.80;99.90;;;;;;5033571;28;20182;-46
2022/03/26 10:46:55;;;;;;;46.90;27.33;;;17.10;99.90;;;;;;5033259;28;20226;-45
2022/03/26 10:49:40;;;;;;;52.88;27.75;;;17.00;99.90;;;;;;5033431;28;20624;-45
2022/03/26 10:52:15;;;;;;;45.28;26.98;;;17.10;99.90;;;;;;5032996;28;20180;-45
2022/03/26 10:54:41;;;;;;;41.35;25.17;;;17.10;99.90;;;;;;5033055;28;20186;-45
2022/03/26 10:57:08;;;;;;;39.47;22.88;;;17.20;99.90;;;;;;5033008;28;20689;-45
2022/03/26 10:59:33;;;;;;;38.67;26.02;;;17.30;99.90;;;;;;5032893;28;20171;-45
2022/03/26 11:01:59;;;;;;;36.63;23.50;;;17.50;99.90;;;;;;5032946;28;20531;-45
2022/03/26 11:04:29;;;;;;;35.67;22.00;;;17.40;98.50;;;;;;5032890;28;20175;-45
2022/03/26 11:06:57;;;;;;;39.97;24.90;;;17.30;96.30;;;;;;5032890;28;20651;-45
2022/03/26 11:09:25;;;;;;;45.38;25.52;;;17.30;96.80;;;;;;5033147;28;20187;-45
2022/03/26 11:11:51;;;;;;;43.75;24.83;;;17.40;95.90;;;;;;5033008;28;20163;-45
2022/03/26 11:14:33;;;;;;;39.83;24.88;;;17.70;95.60;;;;;;5032699;28;20265;-45
2022/03/26 11:17:23;;;;;;;39.40;25.10;;;17.80;96.30;;;;;;5032948;28;20596;-45
2022/03/26 11:20:26;;;;;;;41.08;28.27;;;17.70;94.90;;;;;;5032625;28;20167;-45
2022/03/26 11:23:17;;;;;;;39.03;25.77;;;17.80;95.30;;;;;;5032947;28;20174;-45
2022/03/26 11:26:20;;;;;;;44.30;25.92;;;17.90;95.20;;;;;;5032480;28;20167;-45
2022/03/26 11:28:54;;;;;;;41.33;25.73;;;17.90;96.50;;;;;;5032525;28;20171;-45
2022/03/26 11:31:26;;;;;;;40.08;25.20;;;18.00;96.00;;;;;;5032931;28;20175;-45
2022/03/26 11:34:03;;;;;;;42.05;25.17;;;18.00;95.50;;;;;;5032782;28;20230;-45
2022/03/26 11:36:29;;;;;;;36.33;22.55;;;18.00;96.30;;;;;;5032319;28;20236;-45
2022/03/26 11:39:07;;;;;;;35.95;23.65;;;18.00;94.00;;;;;;5032264;28;20217;-45
2022/03/26 11:41:33;;;;;;;37.50;25.15;;;18.00;94.40;;;;;;5031618;28;20183;-45
2022/03/26 11:44:01;;;;;;;44.17;24.75;;;18.10;94.40;;;;;;5032246;28;20174;-45
2022/03/26 11:52:23;;;;;;;41.58;25.25;;;18.10;93.20;;;;;;5032312;28;20182;-45
2022/03/26 11:54:55;;;;;;;39.70;26.17;;;18.40;93.80;;;;;;5032137;28;20167;-45
2022/03/26 11:57:23;;;;;;;41.35;26.58;;;18.40;93.30;;;;;;5032648;28;20186;-45
2022/03/26 11:59:49;;;;;;;36.17;23.55;;;18.40;94.10;;;;;;5031953;28;20658;-45
2022/03/26 12:02:17;;;;;;;37.80;22.73;;;18.40;93.90;;;;;;5028069;28;20174;-45
2022/03/26 12:04:50;;;;;;;31.25;20.33;;;18.50;93.50;;;;;;5030896;28;20533;-45
2022/03/26 12:07:16;;;;;;;30.30;19.88;;;18.40;92.30;;;;;;5031034;28;20182;-45
2022/03/26 12:09:42;;;;;;;30.48;16.88;;;18.40;92.00;;;;;;5031704;28;20164;-45
2022/03/26 12:12:10;;;;;;;25.88;17.83;;;18.30;91.20;;;;;;5031896;28;20183;-45
2022/03/26 12:15:01;;;;;;;33.85;19.08;;;18.20;90.70;;;;;;5031834;28;20547;-45
2022/03/26 12:17:48;;;;;;;27.05;17.08;;;18.40;90.40;;;;;;5031795;28;20175;-45
2022/03/26 12:20:17;;;;;;;25.05;16.55;;;18.30;90.60;;;;;;5031938;28;20680;-45
2022/03/26 12:22:43;;;;;;;24.55;17.70;;;18.40;90.00;;;;;;5031893;28;20171;-46
2022/03/26 12:25:09;;;;;;;28.83;16.63;;;18.60;91.10;;;;;;5032101;28;20171;-45
2022/03/26 12:27:38;;;;;;;24.90;14.32;;;18.60;90.60;;;;;;5031776;28;20646;-45
2022/03/26 12:30:05;;;;;;;22.00;12.88;;;18.60;91.20;;;;;;5032037;28;20183;-45
2022/03/26 12:32:34;;;;;;;21.08;15.00;;;18.60;90.10;;;;;;5031618;28;20224;-45
2022/03/26 12:35:09;;;;;;;28.52;15.90;;;18.60;90.30;;;;;;5031992;28;20209;-45
2022/03/26 12:37:35;;;;;;;25.67;14.00;;;18.50;90.20;;;;;;5031698;28;20520;-45
2022/03/26 12:40:05;;;;;;;22.10;11.20;;;18.70;90.40;;;;;;5031987;28;20589;-45
2022/03/26 12:42:30;;;;;;;15.27;11.35;;;18.60;87.10;;;;;;5031701;28;20202;-45
2022/03/26 12:44:56;;;;;;;21.60;12.00;;;18.50;87.30;;;;;;5031780;28;20199;-45